Terminal Aerodrome Forecast
Issued by NWS

Home | Current Version | Previous Version | Text Only | Print | Product List | Glossary On
Versions: 1 2 3 4 5 6 7 8 9 10 11 12 13 14 15 16 17 18 19 20 21 22 23 24 25 26 27 28 29 30 31 32
000
FTUS41 KBOX 201122
TAFBAF
TAF
KBAF 201122Z 2012/2112 31009KT P6SM SCT035
     FM201400 32012G25KT P6SM SKC
     FM201900 32012KT P6SM FEW050
     FM210000 31007KT P6SM SKC
     FM210900 31005KT P6SM SKC=

USA.gov is the U.S. government's official web portal to all federal, state and local government web resources and services.